createdAt,value
2018-09-18T00:02:19.449Z,6.97
2018-09-18T00:04:47.399Z,6.60
2018-09-18T00:07:15.435Z,6.50
2018-09-18T00:09:43.509Z,6.40
2018-09-18T00:12:11.445Z,6.20
2018-09-18T00:14:39.502Z,7.10
2018-09-18T00:17:07.435Z,6.50
2018-09-18T00:19:35.391Z,6.23
2018-09-18T00:22:03.354Z,7.07
2018-09-18T00:24:31.297Z,6.63
2018-09-18T00:26:59.285Z,6.53
2018-09-18T00:29:27.264Z,6.33
2018-09-18T00:31:55.308Z,6.40
2018-09-18T00:34:23.352Z,6.47
2018-09-18T00:36:51.288Z,6.60
2018-09-18T00:39:20.161Z,6.70
2018-09-18T00:41:48.129Z,7.10
2018-09-18T00:44:16.148Z,7.00
2018-09-18T00:46:44.118Z,6.90
2018-09-18T00:49:12.140Z,6.90
2018-09-18T00:51:40.127Z,5.70
2018-09-18T00:54:08.205Z,6.97
2018-09-18T00:56:36.287Z,6.63
2018-09-18T00:59:04.286Z,7.00
2018-09-18T01:01:32.263Z,7.10
2018-09-18T01:04:00.260Z,7.50
2018-09-18T01:06:28.329Z,7.10
2018-09-18T01:08:56.304Z,6.80
2018-09-18T01:11:24.251Z,7.20
2018-09-18T01:13:52.239Z,7.03
2018-09-18T01:16:20.926Z,7.00
2018-09-18T01:18:48.868Z,6.40
2018-09-18T01:21:16.888Z,6.67
2018-09-18T01:23:44.851Z,6.70
2018-09-18T01:26:12.900Z,7.23
2018-09-18T01:28:40.880Z,7.83
2018-09-18T01:31:08.920Z,7.47
2018-09-18T01:33:36.909Z,7.90
2018-09-18T01:36:05.236Z,7.70
2018-09-18T01:38:33.200Z,7.43
2018-09-18T01:41:01.173Z,7.70
2018-09-18T01:43:29.267Z,7.10
2018-09-18T01:45:57.248Z,8.50
2018-09-18T01:48:25.340Z,7.67
2018-09-18T01:50:53.287Z,7.70
2018-09-18T01:53:21.492Z,7.53
2018-09-18T01:55:49.451Z,7.20
2018-09-18T01:58:17.417Z,7.20
2018-09-18T02:00:45.360Z,7.43
2018-09-18T02:03:13.352Z,7.70
2018-09-18T02:05:41.307Z,7.23
2018-09-18T02:08:09.404Z,7.60
2018-09-18T02:10:37.365Z,7.90
2018-09-18T02:13:05.553Z,8.07
2018-09-18T02:15:33.549Z,8.00
2018-09-18T02:18:01.616Z,7.83
2018-09-18T02:20:29.613Z,7.83
2018-09-18T02:22:57.619Z,7.40
2018-09-18T02:25:25.572Z,7.50
2018-09-18T02:27:53.761Z,7.70
2018-09-18T02:30:21.845Z,7.03
2018-09-18T02:32:49.931Z,6.63
2018-09-18T02:35:18.016Z,7.33
2018-09-18T02:37:45.968Z,7.20
2018-09-18T02:40:13.902Z,7.23
2018-09-18T02:42:41.882Z,7.13
2018-09-18T02:45:09.813Z,7.23
2018-09-18T02:47:37.787Z,7.03
2018-09-18T02:50:05.788Z,7.53
2018-09-18T02:52:33.785Z,6.90
2018-09-18T02:55:01.726Z,7.70
2018-09-18T02:57:29.695Z,7.07
2018-09-18T02:59:57.768Z,7.50
2018-09-18T03:02:25.735Z,7.27
2018-09-18T03:04:53.691Z,7.20
2018-09-18T03:07:22.474Z,7.10
2018-09-18T03:09:50.407Z,7.17
2018-09-18T03:12:18.351Z,6.87
2018-09-18T03:14:46.432Z,6.83
2018-09-18T03:17:14.389Z,7.10
2018-09-18T03:19:42.337Z,7.17
2018-09-18T03:22:10.327Z,6.87
2018-09-18T03:24:38.275Z,7.00
2018-09-18T03:27:06.320Z,7.40
2018-09-18T03:29:34.293Z,7.40
2018-09-18T03:32:02.283Z,7.57
2018-09-18T03:34:30.235Z,7.10
2018-09-18T03:36:58.239Z,7.50
2018-09-18T03:39:26.206Z,6.73
2018-09-18T03:41:54.180Z,6.80
2018-09-18T03:44:23.026Z,7.37
2018-09-18T03:46:50.961Z,7.07
2018-09-18T03:49:18.895Z,6.67
2018-09-18T03:51:46.935Z,6.90
2018-09-18T03:54:14.908Z,6.97
2018-09-18T03:56:42.907Z,6.93
2018-09-18T03:59:10.880Z,6.30
2018-09-18T04:01:38.816Z,7.10
2018-09-18T04:04:06.864Z,7.00
2018-09-18T04:06:34.824Z,6.57
2018-09-18T04:09:02.765Z,6.70
2018-09-18T04:11:30.796Z,7.43
2018-09-18T04:13:58.786Z,7.20
2018-09-18T04:16:26.728Z,6.77
2018-09-18T04:18:54.953Z,6.47
2018-09-18T04:21:27.635Z,7.95
2018-09-18T04:23:55.596Z,7.80
2018-09-18T04:26:23.543Z,7.03
2018-09-18T04:28:51.539Z,6.50
2018-09-18T04:31:19.579Z,6.93
2018-09-18T04:33:47.534Z,7.47
2018-09-18T04:36:15.521Z,6.37
2018-09-18T04:38:43.503Z,6.53
2018-09-18T04:41:11.476Z,6.60
2018-09-18T04:43:39.426Z,7.10
2018-09-18T04:46:07.380Z,6.67
2018-09-18T04:48:35.312Z,6.90
2018-09-18T04:51:03.265Z,6.60
2018-09-18T04:53:31.210Z,7.60
2018-09-18T04:55:59.174Z,7.12
2018-09-18T04:58:27.116Z,6.70
2018-09-18T05:00:55.117Z,7.03
2018-09-18T05:03:24.045Z,7.53
2018-09-18T05:05:52.145Z,6.70
2018-09-18T05:08:20.150Z,7.10
2018-09-18T05:10:48.115Z,7.47
2018-09-18T05:13:16.101Z,7.90
2018-09-18T05:15:44.024Z,7.37
2018-09-18T05:18:12.032Z,7.73
2018-09-18T05:20:40.032Z,8.00
2018-09-18T05:23:07.951Z,7.10
2018-09-18T05:25:35.995Z,7.40
2018-09-18T05:28:03.876Z,7.67
2018-09-18T05:30:31.925Z,7.60
2018-09-18T05:33:00.043Z,7.53
2018-09-18T05:35:28.014Z,7.30
2018-09-18T05:37:55.968Z,7.10
2018-09-18T05:40:24.573Z,7.03
2018-09-18T05:42:52.499Z,7.67
2018-09-18T05:45:20.501Z,7.70
2018-09-18T05:47:48.463Z,7.30
2018-09-18T05:50:16.407Z,7.37
2018-09-18T05:52:44.398Z,7.13
2018-09-18T05:55:12.467Z,7.30
2018-09-18T05:57:40.442Z,7.40
2018-09-18T06:00:08.412Z,7.33
2018-09-18T06:02:36.401Z,7.50
2018-09-18T06:05:04.328Z,7.90
2018-09-18T06:07:32.463Z,8.10
2018-09-18T06:10:00.455Z,7.80
2018-09-18T06:12:28.514Z,8.17
2018-09-18T06:14:56.436Z,6.77
2018-09-18T06:17:25.142Z,8.20
2018-09-18T06:19:53.128Z,8.30
2018-09-18T06:22:21.156Z,9.50
2018-09-18T06:24:49.132Z,10.13
2018-09-18T06:27:17.088Z,10.00
2018-09-18T06:29:45.107Z,8.60
2018-09-18T06:32:13.060Z,9.40
2018-09-18T06:34:41.059Z,10.13
2018-09-18T06:37:09.470Z,11.97
2018-09-18T06:39:37.471Z,10.53
2018-09-18T06:42:05.526Z,10.58
2018-09-18T06:44:33.487Z,10.00
2018-09-18T06:47:01.491Z,8.60
2018-09-18T06:49:29.468Z,7.73
2018-09-18T06:51:57.437Z,7.23
2018-09-18T06:54:25.609Z,7.20
2018-09-18T06:56:53.664Z,7.20
2018-09-18T06:59:21.626Z,6.60
2018-09-18T07:01:49.572Z,5.90
2018-09-18T07:04:17.544Z,6.63
2018-09-18T07:06:45.515Z,7.07
2018-09-18T07:09:13.480Z,6.10
2018-09-18T07:11:41.496Z,6.80
2018-09-18T07:14:10.468Z,6.27
2018-09-18T07:16:38.420Z,6.20
2018-09-18T07:19:06.483Z,6.40
2018-09-18T07:21:34.677Z,5.97
2018-09-18T07:24:02.625Z,5.80
2018-09-18T07:26:30.621Z,5.80
2018-09-18T07:28:58.709Z,6.97
2018-09-18T07:31:26.811Z,6.23
2018-09-18T07:33:54.895Z,6.07
2018-09-18T07:36:22.847Z,7.70
2018-09-18T07:38:50.849Z,5.90
2018-09-18T07:41:18.781Z,6.03
2018-09-18T07:43:46.767Z,7.90
2018-09-18T07:46:14.736Z,6.87
2018-09-18T07:48:42.784Z,5.70
2018-09-18T07:51:10.845Z,5.77
2018-09-18T07:53:39.019Z,5.90
2018-09-18T07:56:07.132Z,5.70
2018-09-18T07:58:35.095Z,6.07
2018-09-18T08:01:03.093Z,6.30
2018-09-18T08:03:31.080Z,5.97
2018-09-18T08:05:59.038Z,5.90
2018-09-18T08:08:27.051Z,5.67
2018-09-18T08:10:55.110Z,5.90
2018-09-18T08:13:23.084Z,5.53
2018-09-18T08:15:51.028Z,6.13
2018-09-18T08:18:18.994Z,6.03
2018-09-18T08:20:46.930Z,5.33
2018-09-18T08:23:14.890Z,6.10
2018-09-18T08:25:42.902Z,5.87
2018-09-18T08:28:10.841Z,5.50
2018-09-18T08:30:38.790Z,5.50
2018-09-18T08:33:06.852Z,6.70
2018-09-18T08:35:34.819Z,5.63
2018-09-18T08:38:02.787Z,6.00
2018-09-18T08:40:30.808Z,5.10
2018-09-18T08:42:58.794Z,5.50
2018-09-18T08:45:28.913Z,5.74
2018-09-18T08:47:57.252Z,6.00
2018-09-18T08:50:25.273Z,6.07
2018-09-18T08:52:53.244Z,5.93
2018-09-18T08:55:21.144Z,5.47
2018-09-18T08:57:49.158Z,5.87
2018-09-18T09:00:17.132Z,5.80
2018-09-18T09:02:45.126Z,5.87
2018-09-18T09:05:13.078Z,5.90
2018-09-18T09:07:41.136Z,5.50
2018-09-18T09:10:09.135Z,5.37
2018-09-18T09:12:37.196Z,5.67
2018-09-18T09:15:05.169Z,5.40
2018-09-18T09:17:33.187Z,6.13
2018-09-18T09:20:01.193Z,5.00
2018-09-18T09:22:29.257Z,5.43
2018-09-18T09:24:57.945Z,5.50
2018-09-18T09:27:25.949Z,5.73
2018-09-18T09:29:53.953Z,5.10
2018-09-18T09:32:21.957Z,5.50
2018-09-18T09:34:50.244Z,5.87
2018-09-18T09:37:18.434Z,5.63
2018-09-18T09:39:46.252Z,5.67
2018-09-18T09:42:14.202Z,5.70
2018-09-18T09:44:42.247Z,5.03
2018-09-18T09:47:10.207Z,5.47
2018-09-18T09:49:38.150Z,5.80
2018-09-18T09:52:06.112Z,5.28
2018-09-18T09:54:34.074Z,5.87
2018-09-18T09:57:02.190Z,5.77
2018-09-18T09:59:30.053Z,5.23
2018-09-18T10:02:03.688Z,5.40
2018-09-18T10:04:31.765Z,5.40
2018-09-18T10:06:59.737Z,5.50
2018-09-18T10:09:28.299Z,5.97
2018-09-18T10:11:56.326Z,5.73
2018-09-18T10:14:24.329Z,5.40
2018-09-18T10:16:52.290Z,5.60
2018-09-18T10:19:20.357Z,6.07
2018-09-18T10:21:48.323Z,5.80
2018-09-18T10:24:16.336Z,5.73
2018-09-18T10:26:44.468Z,5.73
2018-09-18T10:29:12.413Z,6.10
2018-09-18T10:31:40.416Z,5.13
2018-09-18T10:34:08.375Z,5.87
2018-09-18T10:36:36.438Z,5.23
2018-09-18T10:39:06.797Z,5.60
2018-09-18T10:41:35.017Z,6.17
2018-09-18T10:44:02.832Z,5.80
2018-09-18T10:46:30.850Z,5.07
2018-09-18T10:48:58.892Z,4.80
2018-09-18T10:51:26.920Z,5.00
2018-09-18T10:53:55.168Z,4.80
2018-09-18T10:56:23.265Z,5.40
2018-09-18T10:58:51.360Z,5.57
2018-09-18T11:01:19.826Z,5.50
2018-09-18T11:03:47.815Z,5.43
2018-09-18T11:06:15.814Z,4.90
2018-09-18T11:08:43.880Z,5.30
2018-09-18T11:11:11.872Z,5.07
2018-09-18T11:13:39.774Z,5.77
2018-09-18T11:16:07.747Z,6.53
2018-09-18T11:18:35.757Z,5.77
2018-09-18T11:21:03.679Z,5.30
2018-09-18T11:23:31.745Z,5.87
2018-09-18T11:25:59.673Z,5.20
2018-09-18T11:28:27.744Z,5.30
2018-09-18T11:30:55.755Z,5.20
2018-09-18T11:33:23.772Z,5.33
2018-09-18T11:35:51.756Z,5.30
2018-09-18T11:38:19.747Z,5.20
2018-09-18T11:40:47.733Z,5.30
2018-09-18T11:43:15.697Z,5.60
2018-09-18T11:45:43.804Z,5.70
2018-09-18T11:48:11.681Z,5.77
2018-09-18T11:50:39.668Z,6.80
2018-09-18T11:53:07.621Z,4.40
2018-09-18T11:55:35.629Z,4.90
2018-09-18T11:58:03.653Z,4.83
2018-09-18T12:00:31.602Z,4.60
2018-09-18T12:02:59.592Z,4.40
2018-09-18T12:05:27.559Z,4.53
2018-09-18T12:07:55.644Z,4.50
2018-09-18T12:10:23.593Z,4.90
2018-09-18T12:12:51.585Z,4.80
2018-09-18T12:15:19.664Z,4.73
2018-09-18T12:17:47.744Z,4.47
2018-09-18T12:20:15.683Z,5.10
2018-09-18T12:22:43.955Z,4.80
2018-09-18T12:25:11.905Z,4.70
2018-09-18T12:27:39.945Z,4.70
2018-09-18T12:30:08.281Z,4.30
2018-09-18T12:32:36.227Z,4.93
2018-09-18T12:35:04.453Z,4.70
2018-09-18T12:37:32.632Z,5.37
2018-09-18T12:40:00.717Z,4.73
2018-09-18T12:42:29.720Z,4.63
2018-09-18T12:44:57.624Z,5.00
2018-09-18T12:47:25.643Z,5.13
2018-09-18T12:49:54.261Z,4.60
2018-09-18T12:52:21.953Z,4.50
2018-09-18T12:54:49.970Z,5.43
2018-09-18T12:57:18.153Z,4.70
2018-09-18T12:59:45.994Z,5.10
2018-09-18T13:02:13.965Z,5.12
2018-09-18T13:04:42.094Z,4.97
2018-09-18T13:07:10.151Z,4.53
2018-09-18T13:09:38.241Z,5.30
2018-09-18T13:12:06.189Z,5.03
2018-09-18T13:14:34.121Z,5.30
2018-09-18T13:17:02.056Z,5.03
2018-09-18T13:19:30.196Z,4.67
2018-09-18T13:21:58.225Z,4.73
2018-09-18T13:24:26.189Z,4.80
2018-09-18T13:26:54.192Z,4.53
2018-09-18T13:29:22.142Z,4.90
2018-09-18T13:31:50.287Z,5.43
2018-09-18T13:34:18.242Z,5.00
2018-09-18T13:36:46.207Z,5.67
2018-09-18T13:39:14.149Z,4.70
2018-09-18T13:41:42.110Z,4.70
2018-09-18T13:44:10.028Z,5.33
2018-09-18T13:46:38.032Z,5.00
2018-09-18T13:49:05.927Z,4.67
2018-09-18T13:51:33.944Z,5.10
2018-09-18T13:54:01.924Z,5.10
2018-09-18T13:56:30.702Z,4.70
2018-09-18T13:58:58.519Z,5.17
2018-09-18T14:01:26.572Z,5.10
2018-09-18T14:03:54.485Z,4.83
2018-09-18T14:06:22.447Z,5.20
2018-09-18T14:08:50.449Z,5.00
2018-09-18T14:11:18.425Z,5.10
2018-09-18T14:13:46.676Z,5.20
2018-09-18T14:16:14.607Z,5.00
2018-09-18T14:18:42.617Z,4.67
2018-09-18T14:21:10.540Z,5.30
2018-09-18T14:23:38.533Z,5.67
2018-09-18T14:26:06.558Z,4.67
2018-09-18T14:28:34.581Z,4.90
2018-09-18T14:31:02.537Z,5.67
2018-09-18T14:33:31.149Z,5.57
2018-09-18T14:35:59.213Z,5.60
2018-09-18T14:38:27.219Z,5.00
2018-09-18T14:40:55.187Z,5.20
2018-09-18T14:46:26.730Z,5.03
2018-09-18T14:48:54.701Z,5.37
2018-09-18T14:51:22.703Z,5.07
2018-09-18T14:53:50.652Z,5.40
2018-09-18T14:56:18.652Z,5.30
2018-09-18T14:58:46.604Z,5.47
2018-09-18T15:01:14.575Z,5.10
2018-09-18T15:03:42.544Z,5.10
2018-09-18T15:06:10.508Z,5.60
2018-09-18T15:08:38.512Z,5.73
2018-09-18T15:11:06.484Z,5.00
2018-09-18T15:13:34.491Z,4.80
2018-09-18T15:16:02.437Z,5.90
2018-09-18T15:18:31.332Z,5.03
2018-09-18T15:20:59.513Z,5.20
2018-09-18T15:23:27.537Z,6.00
2018-09-18T15:25:55.506Z,4.80
2018-09-18T15:28:23.472Z,5.20
2018-09-18T15:30:51.477Z,5.07
2018-09-18T15:33:19.460Z,5.20
2018-09-18T15:35:47.456Z,4.80
2018-09-18T15:38:15.448Z,4.80
2018-09-18T15:40:43.389Z,4.87
2018-09-18T15:43:11.480Z,4.80
2018-09-18T15:45:39.426Z,4.77
2018-09-18T15:48:07.366Z,4.60
2018-09-18T15:50:35.321Z,4.73
2018-09-18T15:53:03.337Z,4.33
2018-09-18T15:55:32.103Z,4.80
2018-09-18T15:58:01.220Z,4.40
2018-09-18T16:00:29.332Z,5.00
2018-09-18T16:02:57.645Z,5.50
2018-09-18T16:05:25.677Z,4.90
2018-09-18T16:07:53.705Z,4.73
2018-09-18T16:10:21.700Z,5.40
2018-09-18T16:12:49.723Z,4.30
2018-09-18T16:15:18.656Z,4.97
2018-09-18T16:17:46.709Z,4.97
2018-09-18T16:20:14.725Z,5.53
2018-09-18T16:22:42.868Z,5.10
2018-09-18T16:25:10.768Z,4.90
2018-09-18T16:27:39.045Z,5.53
2018-09-18T16:30:07.105Z,4.57
2018-09-18T16:32:35.109Z,5.00
2018-09-18T16:35:03.062Z,4.63
2018-09-18T16:37:31.181Z,4.83
2018-09-18T16:39:59.136Z,5.00
2018-09-18T16:42:27.217Z,5.20
2018-09-18T16:44:55.247Z,4.80
2018-09-18T16:47:23.213Z,4.93
2018-09-18T16:49:51.196Z,4.70
2018-09-18T16:52:19.608Z,4.80
2018-09-18T16:54:48.241Z,4.97
2018-09-18T16:57:16.225Z,5.40
2018-09-18T16:59:44.182Z,4.77
2018-09-18T17:02:12.187Z,5.07
2018-09-18T17:04:40.172Z,5.40
2018-09-18T17:07:08.481Z,5.33
2018-09-18T17:09:36.634Z,5.00
2018-09-18T17:12:04.735Z,4.77
2018-09-18T17:14:33.137Z,5.60
2018-09-18T17:17:01.124Z,5.20
2018-09-18T17:19:29.101Z,5.83
2018-09-18T17:21:57.152Z,4.87
2018-09-18T17:24:25.689Z,5.50
2018-09-18T17:26:53.720Z,5.17
2018-09-18T17:29:21.783Z,5.40
2018-09-18T17:31:49.741Z,5.37
2018-09-18T17:34:17.870Z,5.57
2018-09-18T17:36:45.832Z,5.53
2018-09-18T17:39:13.860Z,5.53
2018-09-18T17:41:41.874Z,5.80
2018-09-18T17:44:10.745Z,5.40
2018-09-18T17:46:38.824Z,5.80
2018-09-18T17:49:07.214Z,6.03
2018-09-18T17:51:35.237Z,5.97
2018-09-18T17:54:03.652Z,7.00
2018-09-18T17:56:31.684Z,6.57
2018-09-18T17:58:59.760Z,6.10
2018-09-18T18:01:27.939Z,6.23
2018-09-18T18:03:55.984Z,6.50
2018-09-18T18:06:23.965Z,6.13
2018-09-18T18:08:52.130Z,6.87
2018-09-18T18:11:20.118Z,6.40
2018-09-18T18:13:48.112Z,7.20
2018-09-18T18:16:16.282Z,6.70
2018-09-18T18:18:44.250Z,6.83
2018-09-18T18:21:13.120Z,5.80
2018-09-18T18:23:41.181Z,6.10
2018-09-18T18:26:09.744Z,6.80
2018-09-18T18:28:37.791Z,6.40
2018-09-18T18:31:05.817Z,6.63
2018-09-18T18:33:34.085Z,6.10
2018-09-18T18:36:02.075Z,5.90
2018-09-18T18:38:30.474Z,6.13
2018-09-18T18:40:58.495Z,6.07
2018-09-18T18:43:26.471Z,5.87
2018-09-18T18:45:54.545Z,5.60
2018-09-18T18:48:22.614Z,6.23
2018-09-18T18:50:50.572Z,5.67
2018-09-18T18:53:18.655Z,5.87
2018-09-18T18:55:47.028Z,5.87
2018-09-18T18:58:15.146Z,5.90
2018-09-18T19:00:43.199Z,6.27
2018-09-18T19:03:11.164Z,5.27
2018-09-18T19:05:39.217Z,5.40
2018-09-18T19:08:07.157Z,5.60
2018-09-18T19:10:35.145Z,5.37
2018-09-18T19:13:03.211Z,5.87
2018-09-18T19:15:31.182Z,5.00
2018-09-18T19:18:02.229Z,4.90
2018-09-18T19:20:31.256Z,5.03
2018-09-18T19:22:59.809Z,5.50
2018-09-18T19:25:28.156Z,4.90
2018-09-18T19:27:56.271Z,5.20
2018-09-18T19:30:24.374Z,5.07
2018-09-18T19:32:52.622Z,5.23
2018-09-18T19:35:20.567Z,5.07
2018-09-18T19:37:48.638Z,5.00
2018-09-18T19:40:16.637Z,4.87
2018-09-18T19:42:44.606Z,5.20
2018-09-18T19:45:12.647Z,4.50
2018-09-18T19:47:40.795Z,5.70
2018-09-18T19:50:14.777Z,5.03
2018-09-18T19:52:43.445Z,5.03
2018-09-18T19:55:11.396Z,5.17
2018-09-18T19:57:39.661Z,6.17
2018-09-18T20:00:08.143Z,4.93
2018-09-18T20:02:36.215Z,5.77
2018-09-18T20:05:04.203Z,5.03
2018-09-18T20:07:32.152Z,5.57
2018-09-18T20:10:00.224Z,5.10
2018-09-18T20:12:28.274Z,6.70
2018-09-18T20:14:56.308Z,5.50
2018-09-18T20:17:24.214Z,4.80
2018-09-18T20:19:52.202Z,4.90
2018-09-18T20:22:20.168Z,5.03
2018-09-18T20:24:48.290Z,5.23
2018-09-18T20:27:16.239Z,5.13
2018-09-18T20:29:44.301Z,4.60
2018-09-18T20:32:12.327Z,4.50
2018-09-18T20:34:40.404Z,4.80
2018-09-18T20:37:08.400Z,4.77
2018-09-18T20:39:36.365Z,4.50
2018-09-18T20:42:04.407Z,4.97
2018-09-18T20:44:32.352Z,4.97
2018-09-18T20:47:00.370Z,4.50
2018-09-18T20:52:02.990Z,5.00
2018-09-18T20:54:30.985Z,5.23
2018-09-18T20:56:58.977Z,4.90
2018-09-18T20:59:27.147Z,4.80
2018-09-18T21:01:55.346Z,4.47
2018-09-18T21:04:23.288Z,4.50
2018-09-18T21:06:52.192Z,4.60
2018-09-18T21:09:20.151Z,5.67
2018-09-18T21:11:48.104Z,4.17
2018-09-18T21:14:16.097Z,4.70
2018-09-18T21:16:44.090Z,4.67
2018-09-18T21:19:12.131Z,5.07
2018-09-18T21:21:40.209Z,5.27
2018-09-18T21:24:08.272Z,5.77
2018-09-18T21:26:36.420Z,4.70
2018-09-18T21:29:04.401Z,5.27
2018-09-18T21:31:32.374Z,5.10
2018-09-18T21:34:00.317Z,5.27
2018-09-18T21:36:28.292Z,4.87
2018-09-18T21:38:56.275Z,5.43
2018-09-18T21:41:24.270Z,5.33
2018-09-18T21:43:52.235Z,5.17
2018-09-18T21:46:20.244Z,6.80
2018-09-18T21:48:48.208Z,7.00
2018-09-18T21:51:16.163Z,7.07
2018-09-18T21:53:44.141Z,7.70
2018-09-18T21:56:12.266Z,8.40
2018-09-18T21:58:40.277Z,8.50
2018-09-18T22:01:08.315Z,9.50
2018-09-18T22:03:36.991Z,10.30
2018-09-18T22:06:05.374Z,10.67
2018-09-18T22:08:33.363Z,12.17
2018-09-18T22:11:01.452Z,13.00
2018-09-18T22:13:29.423Z,14.00
2018-09-18T22:15:57.482Z,14.20
2018-09-18T22:18:25.439Z,15.40
2018-09-18T22:20:53.489Z,16.23
2018-09-18T22:23:21.564Z,17.87
2018-09-18T22:25:49.533Z,18.60
2018-09-18T22:28:17.532Z,19.13
2018-09-18T22:30:45.495Z,20.43
2018-09-18T22:33:13.476Z,21.80
2018-09-18T22:35:41.488Z,23.47
2018-09-18T22:38:09.564Z,25.43
2018-09-18T22:40:37.539Z,23.33
2018-09-18T22:43:05.662Z,26.50
2018-09-18T22:45:33.605Z,27.63
2018-09-18T22:48:01.615Z,28.57
2018-09-18T22:50:29.638Z,28.57
2018-09-18T22:52:57.644Z,29.40
2018-09-18T22:55:25.624Z,29.87
2018-09-18T22:57:53.610Z,27.93
2018-09-18T23:00:21.592Z,28.27
2018-09-18T23:02:49.564Z,30.07
2018-09-18T23:05:17.533Z,28.80
2018-09-18T23:07:45.523Z,29.60
2018-09-18T23:10:13.526Z,28.70
2018-09-18T23:12:41.609Z,29.27
2018-09-18T23:15:09.587Z,28.33
2018-09-18T23:17:38.157Z,29.60
2018-09-18T23:20:06.243Z,27.55
2018-09-18T23:22:34.300Z,30.43
2018-09-18T23:25:02.280Z,28.70
2018-09-18T23:27:30.260Z,27.83
2018-09-18T23:29:58.348Z,28.90
2018-09-18T23:32:26.322Z,30.63
2018-09-18T23:34:54.310Z,30.60
2018-09-18T23:37:22.432Z,32.03
2018-09-18T23:39:50.372Z,30.80
2018-09-18T23:42:18.467Z,31.00
2018-09-18T23:44:46.483Z,29.93
2018-09-18T23:47:14.452Z,30.17
2018-09-18T23:49:42.442Z,30.77
2018-09-18T23:52:10.436Z,31.20
2018-09-18T23:54:38.638Z,29.13
2018-09-18T23:57:06.686Z,27.97
2018-09-18T23:59:34.756Z,27.60
